Terminal Aerodrome Forecast
Issued by NWS Twin Cities, MN

Home | Current Version | Previous Version | Graphics & Text | Print | Product List | Glossary On
Versions: 1 2 3 4 5 6 7 8 9 10 11 12 13 14 15 16 17 18 19 20 21 22 23 24 25 26 27 28 29 30 31 32 33 34 35 36
125
FTUS43 KMPX 112331
TAFMSP
TAF
KMSP 112331Z 1200/1306 33017G25KT P6SM OVC029
     FM120100 32016G25KT P6SM SCT030
     FM120600 31012KT P6SM SKC
     FM121500 29006KT P6SM BKN100
     FM122000 24006KT P6SM BKN025 OVC050
     FM130000 VRB03KT P6SM BKN050=

USA.gov is the U.S. government's official web portal to all federal, state and local government web resources and services.